Time;durP1;ratioP1;P1;durP2;ratioP2;P2;SDS_P1;SDS_P2;PMS_P1;PMS_P2;Temp;Humidity;BMP_temperature;BMP_pressure;BME280_temperature;BME280_humidity;BME280_pressure;Samples;Min_cycle;Max_cycle;Signal;HPM_P1;HPM_P2
2023/01/13 02:01:17;;;;;;;6.17;1.87;;;;;;;;;;4904129;29;20490;-93
2023/01/13 02:04:10;;;;;;;3.50;1.57;;;;;;;;;;4921974;29;20862;-93
2023/01/13 02:06:59;;;;;;;3.50;1.33;;;;;;;;;;4903839;29;20559;-92
2023/01/13 02:09:48;;;;;;;5.77;1.60;;;;;;;;;;4897425;29;20636;-92
2023/01/13 02:12:38;;;;;;;5.70;1.73;;;;;;;;;;4912783;29;20453;-94
2023/01/13 02:15:29;;;;;;;4.50;2.00;;;;;;;;;;4896429;29;20470;-93
2023/01/13 02:18:38;;;;;;;13.60;1.83;;;;;;;;;;4892377;29;20506;-93
2023/01/13 02:21:36;;;;;;;7.50;2.00;;;;;;;;;;4894628;29;20482;-93
2023/01/13 02:24:54;;;;;;;5.43;1.90;;;;;;;;;;4894881;29;20494;-92
2023/01/13 02:28:03;;;;;;;6.30;1.90;;;;;;;;;;4885663;29;20493;-92
2023/01/13 02:34:08;;;;;;;4.93;1.97;;;;;;;;;;4892026;29;20490;-92
2023/01/13 02:36:59;;;;;;;6.23;2.33;;;;;;;;;;4894173;29;20474;-92
2023/01/13 02:39:51;;;;;;;5.97;2.17;;;;;;;;;;4891703;29;20489;-92
2023/01/13 02:45:59;;;;;;;9.17;2.20;;;;;;;;;;4889791;29;20598;-92
2023/01/13 02:48:49;;;;;;;6.30;2.20;;;;;;;;;;4899825;29;20464;-91
2023/01/13 02:51:39;;;;;;;11.77;2.90;;;;;;;;;;4895378;29;20489;-91
2023/01/13 02:54:29;;;;;;;8.40;2.50;;;;;;;;;;4910483;29;20491;-92
2023/01/13 02:57:18;;;;;;;6.33;3.53;;;;;;;;;;4915785;29;20505;-92
2023/01/13 03:00:08;;;;;;;8.90;3.30;;;;;;;;;;4916230;29;20484;-93
2023/01/13 03:02:59;;;;;;;5.60;1.90;;;;;;;;;;4908609;29;20466;-94
2023/01/13 03:05:49;;;;;;;8.00;2.77;;;;;;;;;;4896107;29;20487;-93
2023/01/13 03:08:42;;;;;;;9.10;2.50;;;;;;;;;;4896923;29;20613;-93
2023/01/13 03:11:35;;;;;;;5.50;2.13;;;;;;;;;;4903787;29;20486;-92
2023/01/13 03:14:30;;;;;;;5.33;2.00;;;;;;;;;;4900702;29;20537;-94
2023/01/13 03:17:26;;;;;;;8.07;2.77;;;;;;;;;;4901382;29;20560;-92
2023/01/13 03:20:19;;;;;;;4.33;2.37;;;;;;;;;;4901333;29;21359;-93
2023/01/13 03:23:11;;;;;;;5.50;1.70;;;;;;;;;;4890596;29;20459;-93
2023/01/13 03:26:04;;;;;;;7.33;2.17;;;;;;;;;;4897983;29;20533;-92
2023/01/13 03:28:55;;;;;;;5.70;2.10;;;;;;;;;;4901205;29;20985;-93
2023/01/13 03:31:47;;;;;;;3.47;1.70;;;;;;;;;;4899031;29;20502;-92
2023/01/13 03:34:39;;;;;;;5.03;2.00;;;;;;;;;;4899133;29;20497;-92
2023/01/13 03:37:33;;;;;;;5.50;2.27;;;;;;;;;;4900678;29;21001;-93
2023/01/13 03:40:25;;;;;;;8.37;2.00;;;;;;;;;;4898442;29;20561;-93
2023/01/13 03:46:29;;;;;;;9.20;2.90;;;;;;;;;;4895772;29;20841;-93
2023/01/13 03:49:20;;;;;;;10.30;3.13;;;;;;;;;;4894211;29;21033;-94
2023/01/13 03:52:10;;;;;;;8.67;3.07;;;;;;;;;;4897397;29;20454;-93
2023/01/13 03:55:03;;;;;;;14.23;3.13;;;;;;;;;;4895996;29;20458;-93
2023/01/13 03:57:53;;;;;;;9.23;2.70;;;;;;;;;;4899768;29;20486;-93
2023/01/13 04:00:45;;;;;;;10.33;2.63;;;;;;;;;;4896269;29;20489;-93
2023/01/13 04:03:37;;;;;;;9.83;2.97;;;;;;;;;;4901640;29;21379;-93
2023/01/13 04:06:31;;;;;;;10.30;3.40;;;;;;;;;;4901572;29;20490;-94
2023/01/13 04:09:25;;;;;;;7.97;3.30;;;;;;;;;;4899990;29;21003;-93
2023/01/13 04:12:17;;;;;;;7.43;2.70;;;;;;;;;;4898330;29;21004;-93
2023/01/13 04:15:07;;;;;;;12.83;3.90;;;;;;;;;;4903067;29;20469;-94
2023/01/13 04:18:02;;;;;;;10.00;3.30;;;;;;;;;;4899837;29;20526;-93
2023/01/13 04:20:52;;;;;;;14.33;3.50;;;;;;;;;;4901595;29;20562;-93
2023/01/13 04:23:41;;;;;;;7.17;3.10;;;;;;;;;;4910636;29;20454;-93
2023/01/13 04:26:30;;;;;;;11.33;3.33;;;;;;;;;;4901527;29;20855;-93
2023/01/13 04:29:21;;;;;;;11.23;3.30;;;;;;;;;;4900055;29;20534;-94
2023/01/13 04:32:09;;;;;;;10.13;2.87;;;;;;;;;;4908665;29;20541;-93
2023/01/13 04:34:59;;;;;;;9.83;2.83;;;;;;;;;;4897736;29;20458;-93
2023/01/13 04:37:48;;;;;;;11.00;3.10;;;;;;;;;;4895947;29;20558;-93
2023/01/13 04:40:37;;;;;;;8.23;3.00;;;;;;;;;;4896831;29;20485;-93
2023/01/13 04:43:27;;;;;;;12.07;2.93;;;;;;;;;;4897432;29;20533;-94
2023/01/13 04:46:18;;;;;;;13.70;3.63;;;;;;;;;;4894267;29;20474;-93
2023/01/13 04:49:07;;;;;;;9.77;3.40;;;;;;;;;;4894939;29;20499;-93
2023/01/13 04:51:56;;;;;;;8.80;2.77;;;;;;;;;;4897977;29;20514;-93
2023/01/13 04:54:45;;;;;;;14.23;3.40;;;;;;;;;;4893965;29;20529;-93
2023/01/13 04:57:36;;;;;;;10.20;3.17;;;;;;;;;;4895879;29;20486;-93
2023/01/13 05:00:26;;;;;;;11.10;3.27;;;;;;;;;;4900355;29;20482;-93
2023/01/13 05:03:17;;;;;;;10.10;2.70;;;;;;;;;;4896183;29;20477;-92
2023/01/13 05:06:06;;;;;;;7.83;2.93;;;;;;;;;;4892730;29;20456;-93
2023/01/13 05:08:56;;;;;;;10.83;4.10;;;;;;;;;;4903142;29;20454;-93
2023/01/13 05:17:59;;;;;;;10.90;3.53;;;;;;;;;;4905451;29;20588;-93
2023/01/13 05:20:50;;;;;;;10.80;2.90;;;;;;;;;;4904789;29;20492;-94
2023/01/13 05:26:47;;;;;;;8.70;2.73;;;;;;;;;;4898333;29;20474;-95
2023/01/13 05:29:35;;;;;;;12.40;3.20;;;;;;;;;;4900700;29;20635;-94
2023/01/13 05:32:26;;;;;;;10.37;3.40;;;;;;;;;;4896202;29;20493;-94
2023/01/13 05:35:15;;;;;;;7.53;3.40;;;;;;;;;;4892333;29;20539;-93
2023/01/13 05:38:08;;;;;;;9.40;3.27;;;;;;;;;;4909538;29;20585;-94
2023/01/13 05:44:06;;;;;;;10.37;3.80;;;;;;;;;;4902205;29;20470;-93
2023/01/13 05:46:58;;;;;;;7.43;3.07;;;;;;;;;;4899058;29;20526;-94
2023/01/13 05:49:48;;;;;;;9.80;3.13;;;;;;;;;;4899715;29;20489;-94
2023/01/13 06:08:24;;;;;;;9.10;3.27;;;;;;;;;;3282947;27;20552;-78
2023/01/13 06:11:13;;;;;;;17.13;4.43;;;;;;;;;;4896334;29;20512;-78
2023/01/13 06:14:01;;;;;;;9.80;3.37;;;;;;;;;;4910923;29;20528;-77
2023/01/13 06:16:50;;;;;;;8.73;3.60;;;;;;;;;;4898450;29;20685;-78
2023/01/13 06:19:39;;;;;;;13.23;3.33;;;;;;;;;;4924509;23;20489;-72
2023/01/13 06:22:31;;;;;;;9.50;3.43;;;;;;;;;;4918023;29;20480;-72
2023/01/13 06:25:26;;;;;;;9.57;3.63;;;;;;;;;;4923513;29;20612;-72
2023/01/13 06:28:17;;;;;;;6.93;3.33;;;;;;;;;;4921814;29;20555;-72
2023/01/13 06:31:06;;;;;;;12.53;3.57;;;;;;;;;;4904119;29;20969;-72
2023/01/13 06:37:13;;;;;;;12.67;4.20;;;;;;;;;;4902069;29;20459;-72
2023/01/13 06:40:04;;;;;;;8.80;3.27;;;;;;;;;;4898994;29;20618;-73
2023/01/13 06:46:05;;;;;;;8.23;3.80;;;;;;;;;;4897701;29;20475;-72
2023/01/13 06:48:55;;;;;;;10.07;3.63;;;;;;;;;;4907628;29;20489;-72
2023/01/13 06:51:58;;;;;;;9.90;3.60;;;;;;;;;;4909533;29;20493;-72
2023/01/13 06:54:53;;;;;;;13.03;4.13;;;;;;;;;;4912616;29;20457;-72
2023/01/13 06:57:48;;;;;;;8.93;3.50;;;;;;;;;;4910422;29;20472;-72
2023/01/13 07:00:40;;;;;;;9.40;3.50;;;;;;;;;;4910926;29;20560;-72
2023/01/13 07:03:31;;;;;;;9.30;3.37;;;;;;;;;;4910729;29;20473;-72
2023/01/13 07:06:20;;;;;;;12.50;4.60;;;;;;;;;;4912976;29;20469;-72
2023/01/13 07:09:15;;;;;;;9.83;3.60;;;;;;;;;;4909032;29;20473;-72
2023/01/13 07:12:07;;;;;;;12.80;4.60;;;;;;;;;;4898376;29;20951;-71
2023/01/13 07:18:04;;;;;;;17.10;3.90;;;;;;;;;;4895780;29;20493;-75
2023/01/13 07:21:03;;;;;;;6.33;3.30;;;;;;;;;;4908849;29;20485;-72
2023/01/13 07:24:00;;;;;;;13.90;3.90;;;;;;;;;;4913876;29;20980;-75
2023/01/13 07:26:49;;;;;;;9.43;4.30;;;;;;;;;;4900597;29;20882;-76
2023/01/13 07:29:39;;;;;;;14.67;4.60;;;;;;;;;;4903077;29;20561;-74
2023/01/13 07:32:33;;;;;;;10.63;4.43;;;;;;;;;;4908679;29;20454;-77
2023/01/13 07:35:41;;;;;;;;;;;;;;;;;;;;;
2023/01/13 07:38:35;;;;;;;10.37;4.00;;;;;;;;;;4900351;29;20508;-74
2023/01/13 07:44:29;;;;;;;10.33;3.93;;;;;;;;;;4908350;29;20465;-72
2023/01/13 07:47:27;;;;;;;11.30;3.57;;;;;;;;;;4902771;29;21112;-76
2023/01/13 07:50:17;;;;;;;8.80;3.90;;;;;;;;;;4906547;29;20476;-74
2023/01/13 07:53:10;;;;;;;11.93;4.00;;;;;;;;;;4917867;29;20465;-75
2023/01/13 07:56:02;;;;;;;10.53;5.00;;;;;;;;;;4913348;29;20960;-74
2023/01/13 07:58:56;;;;;;;15.47;4.17;;;;;;;;;;4908962;29;20548;-74
2023/01/13 08:01:47;;;;;;;15.70;4.20;;;;;;;;;;4908446;29;20512;-76
2023/01/13 08:04:35;;;;;;;13.40;4.23;;;;;;;;;;4891932;29;20457;-74
2023/01/13 08:07:24;;;;;;;16.70;4.53;;;;;;;;;;4907693;29;20472;-74
2023/01/13 08:10:14;;;;;;;10.77;3.77;;;;;;;;;;4908331;29;20489;-74
2023/01/13 08:13:18;;;;;;;8.90;3.70;;;;;;;;;;4898365;29;22398;-73
2023/01/13 08:16:08;;;;;;;11.80;4.20;;;;;;;;;;4901412;29;20457;-72
2023/01/13 08:18:59;;;;;;;13.10;4.20;;;;;;;;;;4907099;29;20481;-71
2023/01/13 08:21:47;;;;;;;10.33;4.30;;;;;;;;;;4908773;29;20485;-72
2023/01/13 08:24:36;;;;;;;13.50;5.30;;;;;;;;;;4912811;29;21132;-71
2023/01/13 08:27:26;;;;;;;10.53;4.07;;;;;;;;;;4910850;29;20982;-71
2023/01/13 08:30:14;;;;;;;9.73;3.90;;;;;;;;;;4907751;29;20489;-72
2023/01/13 08:33:07;;;;;;;10.63;4.10;;;;;;;;;;4914180;29;20540;-72
2023/01/13 08:35:55;;;;;;;13.53;4.17;;;;;;;;;;4908310;29;20564;-72
2023/01/13 08:38:44;;;;;;;12.10;4.03;;;;;;;;;;4920087;29;20493;-72
2023/01/13 08:44:40;;;;;;;16.53;4.00;;;;;;;;;;4910157;29;20464;-73
2023/01/13 08:47:29;;;;;;;14.50;4.20;;;;;;;;;;4915793;28;20495;-73
2023/01/13 08:50:18;;;;;;;9.63;3.50;;;;;;;;;;4909944;29;20469;-72
2023/01/13 08:53:07;;;;;;;10.13;3.73;;;;;;;;;;4914530;28;20492;-72
2023/01/13 08:55:55;;;;;;;12.33;3.97;;;;;;;;;;4914973;29;20472;-72
2023/01/13 08:58:44;;;;;;;10.27;3.80;;;;;;;;;;4913095;29;20489;-72
2023/01/13 09:01:34;;;;;;;14.50;3.33;;;;;;;;;;4912739;29;20508;-72
2023/01/13 09:04:24;;;;;;;15.30;3.80;;;;;;;;;;4916083;29;20919;-72
2023/01/13 09:07:12;;;;;;;10.10;3.43;;;;;;;;;;4910158;29;20552;-73
2023/01/13 09:10:03;;;;;;;12.93;4.23;;;;;;;;;;4909221;29;20481;-72
2023/01/13 09:15:58;;;;;;;9.90;3.27;;;;;;;;;;4912409;29;20458;-72
2023/01/13 09:18:48;;;;;;;11.43;3.83;;;;;;;;;;4911175;29;20497;-72
2023/01/13 09:21:38;;;;;;;6.53;3.03;;;;;;;;;;4907699;29;21013;-73
2023/01/13 09:24:26;;;;;;;7.50;2.80;;;;;;;;;;4913355;29;20472;-72
2023/01/13 09:27:18;;;;;;;9.23;2.70;;;;;;;;;;4911757;29;20472;-72
2023/01/13 09:30:07;;;;;;;5.23;2.53;;;;;;;;;;4910215;29;20628;-72
2023/01/13 09:36:01;;;;;;;7.37;2.53;;;;;;;;;;4906236;29;20840;-72
2023/01/13 09:38:50;;;;;;;7.73;2.80;;;;;;;;;;4902803;29;20476;-72
2023/01/13 09:45:03;;;;;;;7.47;2.87;;;;;;;;;;4855809;29;20567;-72
2023/01/13 09:47:56;;;;;;;4.53;2.10;;;;;;;;;;4913668;29;20468;-72
2023/01/13 09:50:49;;;;;;;7.03;2.30;;;;;;;;;;4908157;29;20477;-72
2023/01/13 09:53:43;;;;;;;8.43;2.80;;;;;;;;;;4915323;29;20452;-72
2023/01/13 09:56:32;;;;;;;5.63;2.33;;;;;;;;;;4914808;29;20480;-72
2023/01/13 09:59:20;;;;;;;7.40;2.37;;;;;;;;;;4908605;29;20934;-72
2023/01/13 10:02:33;;;;;;;5.93;2.03;;;;;;;;;;4907551;29;20454;-72
2023/01/13 10:05:26;;;;;;;14.43;3.30;;;;;;;;;;4905636;29;20453;-72
2023/01/13 10:08:18;;;;;;;9.03;2.53;;;;;;;;;;4911649;29;20885;-72
2023/01/13 10:14:18;;;;;;;7.93;2.30;;;;;;;;;;4910553;29;20457;-72
2023/01/13 10:17:11;;;;;;;5.70;2.07;;;;;;;;;;4914490;29;20454;-72
2023/01/13 10:20:03;;;;;;;11.60;2.77;;;;;;;;;;4910964;29;20501;-72
2023/01/13 10:23:00;;;;;;;6.03;2.07;;;;;;;;;;4911747;28;20460;-72
2023/01/13 10:25:56;;;;;;;5.93;2.20;;;;;;;;;;4913479;29;20514;-72
2023/01/13 10:28:53;;;;;;;5.07;2.00;;;;;;;;;;4909525;29;20512;-72
2023/01/13 10:31:41;;;;;;;7.20;2.40;;;;;;;;;;4909641;29;20491;-72
2023/01/13 10:34:30;;;;;;;8.00;2.97;;;;;;;;;;4910030;29;20461;-72
2023/01/13 10:37:25;;;;;;;5.07;2.20;;;;;;;;;;4907216;29;20453;-72
2023/01/13 10:40:17;;;;;;;6.90;2.30;;;;;;;;;;4910478;29;20837;-72
2023/01/13 10:43:06;;;;;;;6.20;2.67;;;;;;;;;;4917776;29;20457;-72
2023/01/13 10:46:01;;;;;;;4.83;2.53;;;;;;;;;;4912619;29;20465;-72
2023/01/13 10:48:54;;;;;;;8.30;2.27;;;;;;;;;;4914844;29;20481;-72
2023/01/13 10:51:44;;;;;;;6.37;2.27;;;;;;;;;;4906916;29;20513;-73
2023/01/13 10:54:33;;;;;;;6.63;2.60;;;;;;;;;;4909943;29;20619;-73
2023/01/13 10:57:25;;;;;;;6.37;2.80;;;;;;;;;;4909251;29;20472;-71
2023/01/13 11:00:26;;;;;;;5.90;2.13;;;;;;;;;;4904823;29;20556;-71
2023/01/13 11:03:17;;;;;;;4.50;2.10;;;;;;;;;;4911975;29;20466;-71
2023/01/13 11:06:06;;;;;;;10.20;2.47;;;;;;;;;;4913377;29;20600;-71
2023/01/13 11:08:57;;;;;;;9.53;2.47;;;;;;;;;;4911489;29;20489;-71
2023/01/13 11:11:46;;;;;;;3.63;2.00;;;;;;;;;;4912279;29;20481;-71
2023/01/13 11:14:38;;;;;;;7.33;2.53;;;;;;;;;;4909336;29;20609;-71
2023/01/13 11:17:37;;;;;;;5.10;2.10;;;;;;;;;;4908062;29;20470;-71
2023/01/13 11:20:31;;;;;;;6.03;2.60;;;;;;;;;;4909663;29;20481;-71
2023/01/13 11:23:24;;;;;;;4.73;2.67;;;;;;;;;;4907849;29;20552;-71
2023/01/13 11:26:14;;;;;;;5.13;2.50;;;;;;;;;;4907656;29;20456;-71
2023/01/13 11:29:09;;;;;;;4.27;2.50;;;;;;;;;;4909686;29;20481;-71
2023/01/13 11:32:02;;;;;;;7.57;2.47;;;;;;;;;;4915916;29;20980;-71
2023/01/13 11:34:52;;;;;;;6.30;2.50;;;;;;;;;;4907590;29;20471;-71
2023/01/13 11:37:45;;;;;;;6.37;3.47;;;;;;;;;;4912335;29;20475;-73
2023/01/13 11:40:37;;;;;;;4.50;2.50;;;;;;;;;;4910116;29;20859;-71
2023/01/13 11:43:29;;;;;;;6.63;2.80;;;;;;;;;;4912572;29;20549;-72
2023/01/13 11:46:18;;;;;;;7.53;3.00;;;;;;;;;;4909088;29;20470;-72
2023/01/13 11:49:07;;;;;;;4.90;2.20;;;;;;;;;;4912611;29;20473;-72
2023/01/13 11:51:59;;;;;;;4.40;2.47;;;;;;;;;;4909635;29;20465;-72
2023/01/13 11:54:56;;;;;;;7.00;2.27;;;;;;;;;;4922613;29;20980;-72
2023/01/13 11:57:54;;;;;;;4.87;2.13;;;;;;;;;;4916992;29;20460;-72
2023/01/13 12:00:52;;;;;;;5.03;2.30;;;;;;;;;;4909908;29;20484;-72
2023/01/13 12:03:42;;;;;;;5.10;2.20;;;;;;;;;;4920925;29;20857;-72
2023/01/13 12:06:34;;;;;;;5.00;2.30;;;;;;;;;;4912708;29;20457;-72
2023/01/13 12:09:28;;;;;;;7.40;3.60;;;;;;;;;;4921578;29;20945;-72
2023/01/13 12:12:26;;;;;;;5.20;2.27;;;;;;;;;;4914517;29;20465;-72
2023/01/13 12:15:28;;;;;;;4.37;2.17;;;;;;;;;;4915534;29;20552;-72
2023/01/13 12:18:24;;;;;;;5.70;2.17;;;;;;;;;;4916567;29;20454;-72
2023/01/13 12:21:19;;;;;;;5.73;2.43;;;;;;;;;;4903687;29;21013;-72
2023/01/13 12:24:16;;;;;;;5.87;2.40;;;;;;;;;;4911609;29;20830;-69
2023/01/13 12:27:06;;;;;;;4.57;2.53;;;;;;;;;;4912310;29;20468;-69
2023/01/13 12:29:58;;;;;;;5.33;2.37;;;;;;;;;;4905575;29;20837;-69
2023/01/13 12:32:47;;;;;;;9.23;3.17;;;;;;;;;;4910969;29;20449;-69
2023/01/13 12:35:39;;;;;;;6.17;2.20;;;;;;;;;;4900378;29;20461;-69
2023/01/13 12:38:33;;;;;;;3.53;2.23;;;;;;;;;;4910881;29;20572;-69
2023/01/13 12:41:30;;;;;;;6.47;2.57;;;;;;;;;;4907988;29;20481;-69
2023/01/13 12:44:19;;;;;;;5.87;2.47;;;;;;;;;;4908863;29;20476;-69
2023/01/13 12:47:30;;;;;;;7.87;2.27;;;;;;;;;;4903948;29;20458;-69
2023/01/13 12:50:42;;;;;;;6.73;2.43;;;;;;;;;;4901946;29;20524;-69
2023/01/13 12:53:35;;;;;;;5.27;2.63;;;;;;;;;;4923648;23;21100;-72
2023/01/13 12:56:39;;;;;;;6.40;2.90;;;;;;;;;;4911832;29;20467;-74
2023/01/13 12:59:39;;;;;;;7.80;3.03;;;;;;;;;;4929012;29;20468;-75
2023/01/13 13:02:34;;;;;;;9.10;4.03;;;;;;;;;;4925746;29;20480;-75
2023/01/13 13:05:46;;;;;;;8.07;3.07;;;;;;;;;;4924677;29;20496;-74
2023/01/13 13:08:51;;;;;;;4.70;2.87;;;;;;;;;;4933911;29;20456;-72
2023/01/13 13:15:01;;;;;;;4.43;2.93;;;;;;;;;;4903493;29;20486;-82
2023/01/13 13:18:20;;;;;;;7.00;2.90;;;;;;;;;;4936092;29;20449;-79
2023/01/13 13:21:10;;;;;;;7.50;2.83;;;;;;;;;;4938083;29;20484;-79
2023/01/13 13:24:02;;;;;;;6.00;2.80;;;;;;;;;;4931202;29;20470;-77
2023/01/13 13:26:51;;;;;;;8.50;2.80;;;;;;;;;;4939657;29;20452;-76
2023/01/13 13:29:49;;;;;;;8.87;3.40;;;;;;;;;;4930457;28;20583;-77
2023/01/13 13:32:55;;;;;;;6.07;3.77;;;;;;;;;;4929636;29;20449;-77
2023/01/13 13:35:51;;;;;;;6.33;3.20;;;;;;;;;;4930099;29;20485;-77
2023/01/13 13:48:29;;;;;;;5.00;2.50;;;;;;;;;;4877463;29;20475;-78
2023/01/13 13:51:25;;;;;;;4.70;2.73;;;;;;;;;;4926809;29;20492;-77
2023/01/13 13:54:14;;;;;;;3.60;2.10;;;;;;;;;;4931078;29;21074;-77
2023/01/13 13:57:03;;;;;;;4.83;3.17;;;;;;;;;;4932690;29;20455;-77
2023/01/13 13:59:55;;;;;;;5.30;3.07;;;;;;;;;;4930101;29;20559;-77
2023/01/13 14:02:48;;;;;;;6.20;2.97;;;;;;;;;;4929323;29;20484;-77
2023/01/13 14:05:37;;;;;;;6.73;3.13;;;;;;;;;;4931212;29;20475;-77
2023/01/13 14:08:28;;;;;;;7.93;3.00;;;;;;;;;;4931498;29;20453;-78
2023/01/13 14:11:26;;;;;;;5.83;3.00;;;;;;;;;;4917555;28;20571;-78
2023/01/13 14:14:19;;;;;;;6.63;3.00;;;;;;;;;;4921902;29;20472;-77
2023/01/13 14:17:18;;;;;;;5.10;3.10;;;;;;;;;;4927338;29;20462;-78
2023/01/13 14:20:08;;;;;;;7.93;3.13;;;;;;;;;;4924979;29;20483;-78
2023/01/13 14:23:00;;;;;;;7.53;3.57;;;;;;;;;;4912308;28;20579;-77
2023/01/13 14:25:51;;;;;;;9.03;3.50;;;;;;;;;;4914289;28;20473;-77
2023/01/13 14:28:40;;;;;;;5.90;2.83;;;;;;;;;;4924365;29;20464;-77
2023/01/13 14:31:30;;;;;;;7.10;2.90;;;;;;;;;;4922102;29;20571;-78
2023/01/13 14:34:19;;;;;;;4.80;3.50;;;;;;;;;;4901478;29;20889;-77
2023/01/13 14:37:24;;;;;;;7.60;3.20;;;;;;;;;;4924616;29;20458;-76
2023/01/13 14:40:27;;;;;;;7.23;2.73;;;;;;;;;;4931100;29;20485;-77
2023/01/13 14:43:19;;;;;;;4.30;2.70;;;;;;;;;;4923215;29;20476;-76
2023/01/13 14:46:09;;;;;;;6.10;2.60;;;;;;;;;;4928458;29;20543;-77
2023/01/13 14:49:00;;;;;;;4.00;2.50;;;;;;;;;;4935865;29;20518;-79
2023/01/13 14:51:49;;;;;;;9.43;3.10;;;;;;;;;;4932006;29;20487;-77
2023/01/13 14:54:48;;;;;;;7.20;3.10;;;;;;;;;;4926429;29;21002;-76
2023/01/13 14:57:38;;;;;;;6.17;2.60;;;;;;;;;;4926959;29;20831;-77
2023/01/13 15:00:28;;;;;;;4.47;2.47;;;;;;;;;;4922606;29;20563;-77
2023/01/13 15:03:17;;;;;;;4.83;2.60;;;;;;;;;;4921751;29;20488;-77
2023/01/13 15:06:20;;;;;;;7.77;3.10;;;;;;;;;;4930576;29;20971;-78
2023/01/13 15:09:12;;;;;;;7.87;2.60;;;;;;;;;;4931394;29;20448;-77
2023/01/13 15:12:14;;;;;;;8.93;2.70;;;;;;;;;;4928652;29;20973;-76
2023/01/13 15:15:03;;;;;;;7.10;2.93;;;;;;;;;;4929164;29;20468;-76
2023/01/13 15:17:54;;;;;;;2.87;1.63;;;;;;;;;;4930642;29;20475;-77
2023/01/13 15:20:43;;;;;;;7.70;2.57;;;;;;;;;;4928988;29;20938;-77
2023/01/13 15:23:31;;;;;;;5.73;2.20;;;;;;;;;;4937710;29;20492;-76
2023/01/13 15:26:21;;;;;;;5.50;2.23;;;;;;;;;;4930153;28;20470;-76
2023/01/13 15:29:14;;;;;;;6.50;2.10;;;;;;;;;;4929056;29;20459;-76
2023/01/13 15:32:02;;;;;;;4.93;1.80;;;;;;;;;;4929799;29;20840;-76
2023/01/13 15:34:52;;;;;;;5.93;2.10;;;;;;;;;;4929917;29;20861;-76
2023/01/13 15:37:41;;;;;;;2.70;1.90;;;;;;;;;;4939019;29;20564;-78
2023/01/13 15:40:31;;;;;;;3.77;1.50;;;;;;;;;;4931396;29;20500;-76
2023/01/13 15:46:39;;;;;;;2.20;1.20;;;;;;;;;;4928374;29;20460;-77
2023/01/13 15:49:33;;;;;;;3.00;1.30;;;;;;;;;;4926701;29;20876;-76
2023/01/13 15:52:24;;;;;;;1.40;1.00;;;;;;;;;;4935035;29;20467;-77
2023/01/13 15:55:15;;;;;;;2.50;1.20;;;;;;;;;;4934794;29;20506;-76
2023/01/13 15:58:08;;;;;;;2.90;1.40;;;;;;;;;;4934461;29;20516;-76
2023/01/13 16:00:57;;;;;;;3.37;1.40;;;;;;;;;;4931266;29;20476;-77
2023/01/13 16:03:45;;;;;;;2.33;1.00;;;;;;;;;;4938316;29;20492;-77
2023/01/13 16:06:35;;;;;;;3.40;1.40;;;;;;;;;;4936853;29;20483;-76
2023/01/13 16:09:25;;;;;;;4.80;1.70;;;;;;;;;;4933528;29;20563;-76
2023/01/13 16:12:13;;;;;;;3.27;1.33;;;;;;;;;;4936502;29;20455;-76
2023/01/13 16:15:02;;;;;;;3.33;1.90;;;;;;;;;;4929888;29;20466;-76
2023/01/13 16:17:54;;;;;;;3.77;1.57;;;;;;;;;;4931407;29;20481;-77
2023/01/13 16:20:43;;;;;;;3.50;1.73;;;;;;;;;;4935623;29;20464;-76
2023/01/13 16:23:32;;;;;;;1.63;1.40;;;;;;;;;;4933253;29;20476;-76
2023/01/13 16:26:23;;;;;;;2.70;1.60;;;;;;;;;;4935602;29;20596;-76
2023/01/13 16:29:12;;;;;;;2.90;1.50;;;;;;;;;;4935911;29;20662;-76
2023/01/13 16:32:03;;;;;;;5.90;2.00;;;;;;;;;;4938081;29;20546;-76
2023/01/13 16:34:52;;;;;;;3.60;1.70;;;;;;;;;;4938786;28;20468;-76
2023/01/13 16:37:44;;;;;;;3.77;1.80;;;;;;;;;;4934330;29;20460;-76
2023/01/13 16:40:35;;;;;;;2.13;1.70;;;;;;;;;;4928569;28;20542;-77
2023/01/13 16:43:26;;;;;;;3.47;1.37;;;;;;;;;;4935365;29;20564;-77
2023/01/13 16:46:22;;;;;;;3.20;1.77;;;;;;;;;;4931442;28;20470;-76
2023/01/13 16:49:12;;;;;;;4.50;1.23;;;;;;;;;;4927910;29;20541;-77
2023/01/13 16:52:01;;;;;;;3.37;1.70;;;;;;;;;;4927750;29;20953;-76
2023/01/13 16:54:51;;;;;;;4.27;1.60;;;;;;;;;;4928113;29;20488;-77
2023/01/13 16:57:40;;;;;;;4.00;1.70;;;;;;;;;;4935053;29;20464;-77
2023/01/13 17:00:31;;;;;;;3.93;1.40;;;;;;;;;;4936042;29;20608;-77
2023/01/13 17:03:19;;;;;;;2.93;1.73;;;;;;;;;;4930283;29;20476;-77
2023/01/13 17:06:10;;;;;;;4.50;1.77;;;;;;;;;;4926658;29;20465;-77
2023/01/13 17:09:02;;;;;;;1.80;1.20;;;;;;;;;;4930863;29;20565;-77
2023/01/13 17:11:51;;;;;;;2.27;1.60;;;;;;;;;;4925819;29;20572;-76
2023/01/13 17:14:42;;;;;;;4.50;1.80;;;;;;;;;;4933390;29;20551;-77
2023/01/13 17:17:32;;;;;;;3.33;1.20;;;;;;;;;;4933436;29;20463;-76
2023/01/13 17:20:20;;;;;;;2.70;1.40;;;;;;;;;;4925131;29;20511;-76
2023/01/13 17:23:09;;;;;;;3.20;1.33;;;;;;;;;;4928693;29;20526;-77
2023/01/13 17:25:57;;;;;;;3.20;1.90;;;;;;;;;;4936235;28;20459;-76
2023/01/13 17:28:46;;;;;;;3.40;2.40;;;;;;;;;;4936345;29;20469;-76
2023/01/13 17:31:35;;;;;;;2.40;1.53;;;;;;;;;;4929942;29;20496;-76
2023/01/13 17:34:25;;;;;;;4.23;1.50;;;;;;;;;;4930017;29;21001;-76
2023/01/13 17:37:14;;;;;;;3.40;1.37;;;;;;;;;;4926789;29;20460;-75
2023/01/13 17:40:02;;;;;;;2.70;1.70;;;;;;;;;;4927080;29;20476;-75
2023/01/13 17:42:51;;;;;;;6.67;1.77;;;;;;;;;;4926068;29;20476;-77
2023/01/13 17:45:41;;;;;;;1.83;1.30;;;;;;;;;;4933970;29;20556;-76
2023/01/13 17:48:30;;;;;;;3.20;1.70;;;;;;;;;;4929544;29;20568;-76
2023/01/13 17:51:21;;;;;;;4.10;2.07;;;;;;;;;;4931220;29;20503;-76
2023/01/13 17:54:10;;;;;;;3.10;1.77;;;;;;;;;;4916091;29;20488;-77
2023/01/13 17:56:59;;;;;;;6.10;1.37;;;;;;;;;;4898423;29;20560;-78
2023/01/13 17:59:48;;;;;;;3.37;1.50;;;;;;;;;;4914583;28;20495;-78
2023/01/13 18:02:37;;;;;;;4.07;1.60;;;;;;;;;;4911053;29;20500;-77
2023/01/13 18:05:26;;;;;;;2.43;1.90;;;;;;;;;;4920745;29;20476;-81
2023/01/13 18:08:16;;;;;;;1.93;1.47;;;;;;;;;;4903321;29;20998;-81
2023/01/13 18:11:05;;;;;;;4.17;1.40;;;;;;;;;;4915252;29;20484;-77
2023/01/13 18:13:55;;;;;;;4.60;1.70;;;;;;;;;;4927075;29;20472;-77
2023/01/13 18:16:44;;;;;;;3.37;1.80;;;;;;;;;;4922406;29;20567;-77
2023/01/13 18:28:53;;;;;;;5.40;1.73;;;;;;;;;;4914728;29;20460;-77
2023/01/13 18:31:41;;;;;;;2.93;1.50;;;;;;;;;;4914615;29;20488;-77
2023/01/13 18:34:30;;;;;;;2.90;1.27;;;;;;;;;;4932579;28;20541;-78
2023/01/13 18:37:19;;;;;;;1.47;1.10;;;;;;;;;;4923265;29;21101;-77
2023/01/13 18:40:09;;;;;;;1.50;1.40;;;;;;;;;;4915695;28;21291;-78
2023/01/13 18:42:58;;;;;;;6.40;1.63;;;;;;;;;;4921466;29;20539;-77
2023/01/13 18:45:50;;;;;;;3.23;1.50;;;;;;;;;;4920355;29;20459;-78
2023/01/13 18:48:38;;;;;;;2.13;1.53;;;;;;;;;;4923820;29;20479;-77
2023/01/13 18:51:27;;;;;;;3.17;1.60;;;;;;;;;;4909252;29;20595;-85
2023/01/13 18:54:17;;;;;;;2.40;1.23;;;;;;;;;;4932036;29;20480;-83
2023/01/13 18:57:06;;;;;;;3.13;1.30;;;;;;;;;;4926149;29;20492;-80
2023/01/13 18:59:56;;;;;;;1.77;1.40;;;;;;;;;;4936490;29;20764;-83
2023/01/13 19:02:46;;;;;;;2.93;1.40;;;;;;;;;;4933766;29;20703;-81
2023/01/13 19:05:37;;;;;;;3.87;1.60;;;;;;;;;;4941182;23;20509;-75
2023/01/13 19:08:29;;;;;;;3.30;1.80;;;;;;;;;;4936402;28;21005;-74
2023/01/13 19:11:19;;;;;;;1.57;1.13;;;;;;;;;;4934417;28;20476;-73
2023/01/13 19:14:07;;;;;;;1.80;1.00;;;;;;;;;;4931482;28;20462;-71
2023/01/13 19:16:57;;;;;;;2.00;1.00;;;;;;;;;;4937136;28;20459;-72
2023/01/13 19:19:47;;;;;;;3.57;1.20;;;;;;;;;;4931031;28;20498;-75
2023/01/13 19:22:36;;;;;;;1.60;1.00;;;;;;;;;;4940311;28;20482;-77
2023/01/13 19:25:25;;;;;;;2.30;1.07;;;;;;;;;;4946676;28;20500;-78
2023/01/13 19:28:14;;;;;;;2.30;1.30;;;;;;;;;;4940910;28;20490;-79
2023/01/13 19:31:03;;;;;;;2.87;1.23;;;;;;;;;;4938199;28;20480;-75
2023/01/13 19:33:53;;;;;;;1.53;1.00;;;;;;;;;;4940241;28;20448;-76
2023/01/13 19:36:42;;;;;;;2.10;1.50;;;;;;;;;;4935898;28;20487;-76
2023/01/13 19:39:30;;;;;;;2.10;1.47;;;;;;;;;;4943974;28;20478;-76
2023/01/13 19:45:26;;;;;;;5.90;1.77;;;;;;;;;;4944796;28;20490;-77
2023/01/13 19:48:15;;;;;;;2.70;2.30;;;;;;;;;;4942186;28;20464;-79
2023/01/13 19:51:05;;;;;;;4.13;2.07;;;;;;;;;;4942704;28;21828;-76
2023/01/13 19:53:53;;;;;;;2.60;1.30;;;;;;;;;;4942717;28;20712;-77
2023/01/13 19:56:43;;;;;;;3.33;1.77;;;;;;;;;;4936508;28;20957;-76
2023/01/13 19:59:32;;;;;;;4.20;1.87;;;;;;;;;;4945052;28;20846;-77
2023/01/13 20:02:26;;;;;;;3.40;1.50;;;;;;;;;;4940520;28;20567;-76
2023/01/13 20:05:19;;;;;;;3.60;1.40;;;;;;;;;;4944988;28;20534;-76
2023/01/13 20:08:10;;;;;;;3.47;1.63;;;;;;;;;;4936565;28;20459;-76
2023/01/13 20:11:20;;;;;;;2.90;1.50;;;;;;;;;;4943578;28;20522;-76
2023/01/13 20:14:08;;;;;;;2.53;1.30;;;;;;;;;;4952507;28;20451;-77
2023/01/13 20:16:57;;;;;;;4.03;1.83;;;;;;;;;;4953141;28;20448;-77
2023/01/13 20:19:46;;;;;;;4.60;1.40;;;;;;;;;;4949845;28;20482;-78
2023/01/13 20:22:36;;;;;;;2.33;1.40;;;;;;;;;;4955259;28;20455;-72
2023/01/13 20:25:27;;;;;;;4.13;1.70;;;;;;;;;;4944482;28;21027;-73
2023/01/13 20:28:19;;;;;;;2.60;1.27;;;;;;;;;;4944290;28;20970;-73
2023/01/13 20:31:08;;;;;;;2.07;1.13;;;;;;;;;;4925557;28;22040;-76
2023/01/13 20:33:57;;;;;;;4.70;1.43;;;;;;;;;;4937488;28;21016;-77
2023/01/13 20:36:45;;;;;;;3.00;1.00;;;;;;;;;;4930585;28;20470;-77
2023/01/13 20:39:34;;;;;;;2.40;1.30;;;;;;;;;;4941119;28;20554;-77
2023/01/13 20:42:31;;;;;;;2.60;1.57;;;;;;;;;;4939083;28;20842;-80